createdAt,value
2018-02-23T00:01:43.617Z,11.03
2018-02-23T00:04:11.219Z,12.70
2018-02-23T00:06:38.787Z,10.77
2018-02-23T00:09:06.358Z,11.60
2018-02-23T00:11:34.711Z,10.00
2018-02-23T00:14:02.275Z,9.70
2018-02-23T00:16:29.871Z,10.47
2018-02-23T00:18:57.865Z,10.67
2018-02-23T00:21:25.430Z,11.60
2018-02-23T00:23:53.031Z,10.73
2018-02-23T00:26:20.599Z,10.57
2018-02-23T00:28:48.964Z,10.40
2018-02-23T00:31:16.778Z,11.63
2018-02-23T00:33:44.388Z,10.90
2018-02-23T00:36:12.919Z,10.47
2018-02-23T00:38:40.487Z,12.30
2018-02-23T00:41:08.122Z,10.00
2018-02-23T00:43:35.699Z,9.63
2018-02-23T00:46:03.343Z,11.00
2018-02-23T00:48:30.902Z,9.23
2018-02-23T00:50:58.600Z,11.23
2018-02-23T00:53:26.194Z,11.20
2018-02-23T00:55:53.767Z,11.20
2018-02-23T00:58:22.152Z,11.30
2018-02-23T01:00:49.945Z,10.73
2018-02-23T01:03:17.518Z,11.50
2018-02-23T01:05:45.147Z,12.10
2018-02-23T01:08:12.714Z,10.10
2018-02-23T01:10:40.366Z,11.07
2018-02-23T01:13:07.943Z,11.90
2018-02-23T01:15:35.587Z,11.87
2018-02-23T01:18:03.164Z,12.03
2018-02-23T01:20:30.810Z,12.27
2018-02-23T01:22:58.386Z,10.20
2018-02-23T01:25:26.048Z,10.70
2018-02-23T01:27:53.615Z,10.37
2018-02-23T01:30:21.218Z,10.87
2018-02-23T01:32:48.824Z,11.10
2018-02-23T01:35:16.435Z,10.80
2018-02-23T01:37:44.026Z,9.77
2018-02-23T01:40:11.819Z,11.57
2018-02-23T01:42:39.417Z,11.70
2018-02-23T01:45:07.231Z,10.00
2018-02-23T01:47:34.790Z,8.83
2018-02-23T01:50:02.426Z,11.77
2018-02-23T01:52:30.002Z,10.97
2018-02-23T01:54:57.647Z,9.90
2018-02-23T01:57:25.218Z,10.17
2018-02-23T01:59:52.879Z,9.80
2018-02-23T02:02:20.453Z,10.97
2018-02-23T02:04:48.092Z,9.63
2018-02-23T02:07:15.660Z,9.60
2018-02-23T02:09:43.336Z,10.93
2018-02-23T02:12:10.902Z,12.10
2018-02-23T02:14:39.467Z,9.23
2018-02-23T02:17:07.063Z,9.73
2018-02-23T02:19:34.653Z,10.70
2018-02-23T02:22:03.179Z,9.73
2018-02-23T02:24:31.749Z,10.20
2018-02-23T02:26:59.322Z,11.43
2018-02-23T02:29:26.948Z,9.40
2018-02-23T02:31:55.286Z,11.07
2018-02-23T02:34:23.142Z,9.80
2018-02-23T02:36:50.735Z,10.40
2018-02-23T02:39:19.288Z,12.70
2018-02-23T02:41:46.863Z,10.30
2018-02-23T02:44:14.434Z,10.53
2018-02-23T02:46:42.797Z,10.10
2018-02-23T02:49:10.612Z,10.23
2018-02-23T02:51:38.211Z,10.67
2018-02-23T02:54:05.791Z,10.63
2018-02-23T02:56:33.390Z,10.43
2018-02-23T02:59:01.003Z,10.57
2018-02-23T03:01:28.579Z,11.40
2018-02-23T03:03:56.939Z,11.23
2018-02-23T03:06:24.507Z,11.73
2018-02-23T03:08:53.053Z,13.57
2018-02-23T03:11:20.629Z,11.50
2018-02-23T03:13:48.262Z,11.70
2018-02-23T03:16:15.829Z,11.60
2018-02-23T03:18:43.432Z,12.10
2018-02-23T03:21:11.799Z,11.17
2018-02-23T03:23:39.610Z,10.20
2018-02-23T03:26:07.221Z,12.07
2018-02-23T03:28:34.794Z,10.70
2018-02-23T03:31:03.176Z,11.90
2018-02-23T03:33:31.580Z,11.70
2018-02-23T03:35:59.156Z,11.80
2018-02-23T03:38:26.819Z,12.27
2018-02-23T03:40:54.411Z,11.93
2018-02-23T03:43:21.996Z,12.70
2018-02-23T03:45:50.408Z,11.30
2018-02-23T03:48:18.200Z,10.87
2018-02-23T03:50:45.814Z,12.30
2018-02-23T03:53:13.388Z,12.87
2018-02-23T03:55:40.995Z,12.43
2018-02-23T03:58:08.575Z,11.70
2018-02-23T04:00:36.915Z,12.80
2018-02-23T04:03:04.775Z,12.00
2018-02-23T04:05:32.351Z,12.40
2018-02-23T04:07:59.970Z,11.87
2018-02-23T04:10:27.549Z,10.73
2018-02-23T04:12:55.150Z,11.43
2018-02-23T04:15:22.748Z,12.93
2018-02-23T04:17:50.362Z,11.03
2018-02-23T04:20:17.967Z,12.30
2018-02-23T04:22:45.601Z,11.77
2018-02-23T04:25:13.954Z,12.20
2018-02-23T04:27:42.657Z,13.10
2018-02-23T04:30:11.047Z,12.60
2018-02-23T04:32:39.413Z,12.17
2018-02-23T04:35:07.748Z,11.07
2018-02-23T04:37:35.352Z,13.33
2018-02-23T04:40:03.820Z,11.73
2018-02-23T04:42:31.422Z,13.33
2018-02-23T04:44:58.996Z,13.17
2018-02-23T04:47:26.609Z,13.07
2018-02-23T04:49:54.980Z,11.83
2018-02-23T04:52:22.787Z,12.30
2018-02-23T04:54:50.391Z,13.53
2018-02-23T04:57:17.979Z,12.53
2018-02-23T04:59:46.368Z,12.60
2018-02-23T05:02:14.110Z,12.37
2018-02-23T05:04:42.449Z,12.70
2018-02-23T05:07:10.046Z,13.53
2018-02-23T05:09:38.378Z,13.30
2018-02-23T05:12:06.156Z,14.40
2018-02-23T05:14:33.731Z,14.77
2018-02-23T05:17:01.412Z,13.70
2018-02-23T05:19:29.022Z,15.73
2018-02-23T05:21:56.627Z,14.83
2018-02-23T05:24:24.966Z,13.30
2018-02-23T05:26:52.729Z,12.40
2018-02-23T05:29:20.298Z,14.23
2018-02-23T05:31:47.918Z,13.60
2018-02-23T05:34:15.507Z,12.70
2018-02-23T05:36:43.095Z,12.53
2018-02-23T05:39:10.694Z,14.47
2018-02-23T05:41:38.336Z,15.73
2018-02-23T05:44:06.752Z,13.17
2018-02-23T05:46:34.511Z,12.57
2018-02-23T05:49:02.107Z,13.77
2018-02-23T05:51:29.907Z,14.20
2018-02-23T05:53:58.247Z,13.37
2018-02-23T05:56:25.950Z,13.27
2018-02-23T05:58:53.523Z,16.27
2018-02-23T06:01:21.096Z,15.03
2018-02-23T06:03:48.690Z,16.57
2018-02-23T06:06:16.271Z,15.67
2018-02-23T06:08:44.638Z,15.87
2018-02-23T06:11:12.468Z,16.80
2018-02-23T06:13:40.042Z,17.77
2018-02-23T06:16:13.283Z,14.90
2018-02-23T06:18:46.611Z,14.50
2018-02-23T06:21:14.244Z,16.77
2018-02-23T06:23:41.818Z,18.80
2018-02-23T06:26:09.471Z,16.47
2018-02-23T06:28:37.051Z,17.30
2018-02-23T06:31:04.738Z,16.40
2018-02-23T06:33:32.308Z,17.53
2018-02-23T06:35:59.880Z,19.37
2018-02-23T06:38:28.248Z,20.00
2018-02-23T06:40:56.059Z,18.73
2018-02-23T06:43:23.663Z,18.63
2018-02-23T06:45:51.237Z,20.27
2018-02-23T06:48:18.811Z,18.40
2018-02-23T06:50:47.180Z,18.97
2018-02-23T06:53:15.529Z,20.93
2018-02-23T06:55:43.295Z,21.73
2018-02-23T06:58:10.892Z,20.03
2018-02-23T07:00:38.500Z,20.90
2018-02-23T07:03:06.083Z,21.33
2018-02-23T07:05:33.688Z,22.33
2018-02-23T07:08:01.463Z,22.60
2018-02-23T07:10:29.228Z,22.93
2018-02-23T07:12:56.822Z,21.93
2018-02-23T07:15:24.408Z,22.07
2018-02-23T07:17:52.786Z,22.73
2018-02-23T07:20:21.158Z,24.07
2018-02-23T07:22:48.769Z,25.20
2018-02-23T07:25:16.386Z,22.63
2018-02-23T07:27:44.734Z,24.10
2018-02-23T07:30:12.603Z,25.10
2018-02-23T07:32:40.183Z,24.47
2018-02-23T07:35:08.692Z,24.00
2018-02-23T07:37:36.263Z,23.77
2018-02-23T07:40:04.221Z,25.33
2018-02-23T07:42:31.804Z,22.70
2018-02-23T07:44:59.469Z,24.57
2018-02-23T07:47:27.072Z,27.53
2018-02-23T07:49:55.609Z,25.83
2018-02-23T07:52:23.224Z,28.07
2018-02-23T07:54:51.704Z,25.43
2018-02-23T07:57:20.078Z,24.57
2018-02-23T07:59:48.449Z,24.13
2018-02-23T08:02:16.836Z,25.57
2018-02-23T08:04:45.205Z,25.27
2018-02-23T08:07:13.541Z,23.37
2018-02-23T08:09:41.173Z,24.90
2018-02-23T08:12:08.763Z,25.67
2018-02-23T08:14:36.384Z,29.00
2018-02-23T08:17:03.957Z,24.70
2018-02-23T08:19:31.568Z,26.40
2018-02-23T08:21:59.161Z,27.23
2018-02-23T08:24:27.694Z,32.43
2018-02-23T08:26:55.270Z,25.80
2018-02-23T08:29:22.853Z,26.93
2018-02-23T08:31:51.243Z,28.20
2018-02-23T08:34:19.049Z,27.17
2018-02-23T08:36:46.649Z,27.47
2018-02-23T08:39:15.135Z,31.23
2018-02-23T08:41:43.498Z,27.20
2018-02-23T08:44:12.242Z,29.57
2018-02-23T08:46:39.853Z,26.57
2018-02-23T08:49:08.374Z,28.70
2018-02-23T08:51:35.985Z,27.03
2018-02-23T08:54:03.558Z,27.20
2018-02-23T08:56:31.886Z,26.17
2018-02-23T08:58:59.496Z,27.80
2018-02-23T09:01:27.834Z,28.70
2018-02-23T09:03:55.608Z,28.83
2018-02-23T09:06:23.186Z,28.60
2018-02-23T09:08:51.732Z,28.33
2018-02-23T09:11:19.308Z,29.90
2018-02-23T09:13:47.016Z,29.27
2018-02-23T09:16:14.583Z,27.53
2018-02-23T09:18:42.197Z,27.87
2018-02-23T09:21:09.776Z,25.30
2018-02-23T09:23:37.354Z,26.90
2018-02-23T09:26:04.955Z,25.03
2018-02-23T09:28:32.559Z,26.73
2018-02-23T09:31:00.925Z,28.60
2018-02-23T09:33:40.585Z,27.30
2018-02-23T09:36:08.949Z,29.53
2018-02-23T09:38:37.493Z,29.37
2018-02-23T09:41:05.278Z,29.33
2018-02-23T09:43:33.006Z,26.77
2018-02-23T09:46:00.628Z,30.10
2018-02-23T09:48:29.134Z,27.60
2018-02-23T09:50:56.760Z,30.03
2018-02-23T09:53:25.239Z,28.47
2018-02-23T09:55:53.576Z,26.43
2018-02-23T09:58:21.193Z,27.00
2018-02-23T10:00:49.528Z,26.47
2018-02-23T10:03:17.293Z,25.93
2018-02-23T10:05:44.859Z,25.07
2018-02-23T10:08:12.443Z,26.37
2018-02-23T10:10:40.798Z,23.87
2018-02-23T10:13:08.666Z,27.10
2018-02-23T10:15:36.278Z,25.40
2018-02-23T10:18:03.846Z,42.67
2018-02-23T10:20:31.434Z,30.27
2018-02-23T10:22:59.003Z,24.27
2018-02-23T10:25:26.595Z,22.87
2018-02-23T10:27:54.244Z,24.87
2018-02-23T10:30:22.629Z,25.97
2018-02-23T10:32:51.430Z,23.80
2018-02-23T10:35:19.011Z,24.73
2018-02-23T10:37:46.937Z,24.90
2018-02-23T10:40:15.282Z,27.30
2018-02-23T10:42:43.055Z,22.90
2018-02-23T10:45:10.724Z,24.17
2018-02-23T10:47:38.628Z,22.90
2018-02-23T10:50:06.225Z,22.03
2018-02-23T10:52:34.030Z,21.20
2018-02-23T10:55:02.427Z,19.70
2018-02-23T10:57:30.230Z,22.80
2018-02-23T10:59:57.913Z,19.13
2018-02-23T11:02:25.769Z,19.83
2018-02-23T11:04:53.371Z,20.43
2018-02-23T11:07:22.245Z,18.60
2018-02-23T11:09:50.629Z,18.00
2018-02-23T11:12:18.986Z,18.60
2018-02-23T11:14:47.343Z,17.77
2018-02-23T11:17:15.207Z,21.50
2018-02-23T11:19:42.803Z,16.73
2018-02-23T11:22:11.213Z,19.10
2018-02-23T11:24:38.857Z,16.77
2018-02-23T11:27:07.240Z,18.27
2018-02-23T11:29:34.836Z,18.70
2018-02-23T11:32:02.647Z,17.27
2018-02-23T11:34:31.027Z,17.97
2018-02-23T11:36:59.421Z,17.10
2018-02-23T11:39:27.003Z,17.93
2018-02-23T11:41:54.593Z,18.00
2018-02-23T11:44:22.224Z,18.10
2018-02-23T11:46:49.814Z,15.47
2018-02-23T11:49:17.421Z,17.83
2018-02-23T11:51:45.057Z,16.70
2018-02-23T11:54:13.483Z,17.37
2018-02-23T11:56:41.112Z,16.60
2018-02-23T11:59:09.490Z,15.73
2018-02-23T12:01:37.881Z,15.37
2018-02-23T12:04:05.469Z,15.33
2018-02-23T12:06:33.201Z,14.87
2018-02-23T12:09:00.794Z,16.97
2018-02-23T12:11:28.428Z,14.20
2018-02-23T12:13:56.000Z,16.70
2018-02-23T12:16:23.587Z,15.60
2018-02-23T12:18:51.147Z,14.13
2018-02-23T12:21:18.804Z,15.20
2018-02-23T12:23:46.368Z,13.63
2018-02-23T12:26:14.007Z,15.10
2018-02-23T12:28:41.602Z,16.33
2018-02-23T12:31:09.166Z,14.30
2018-02-23T12:33:36.759Z,15.33
2018-02-23T12:36:06.414Z,14.33
2018-02-23T12:38:34.030Z,15.30
2018-02-23T12:41:01.758Z,13.90
2018-02-23T12:43:29.351Z,14.20
2018-02-23T12:45:56.980Z,16.40
2018-02-23T12:48:24.566Z,14.53
2018-02-23T12:50:52.240Z,15.67
2018-02-23T12:53:19.834Z,15.03
2018-02-23T12:55:48.395Z,14.33
2018-02-23T12:58:16.015Z,17.20
2018-02-23T13:00:43.591Z,17.30
2018-02-23T13:03:11.174Z,21.57
2018-02-23T13:05:38.830Z,42.60
2018-02-23T13:08:06.496Z,59.20
2018-02-23T13:10:34.123Z,141.83
2018-02-23T13:13:01.697Z,29.13
2018-02-23T13:15:29.285Z,20.93
2018-02-23T13:17:56.863Z,17.93
2018-02-23T13:20:24.462Z,18.03
2018-02-23T13:22:52.808Z,18.77
2018-02-23T13:25:20.673Z,16.73
2018-02-23T13:27:53.968Z,17.20
2018-02-23T13:30:21.709Z,17.20
2018-02-23T13:32:49.279Z,18.70
2018-02-23T13:35:16.918Z,17.07
2018-02-23T13:37:44.491Z,17.97
2018-02-23T13:40:12.098Z,17.30
2018-02-23T13:42:40.931Z,16.00
2018-02-23T13:45:08.537Z,17.10
2018-02-23T13:47:36.899Z,17.27
2018-02-23T13:50:04.773Z,18.00
2018-02-23T13:52:33.173Z,17.37
2018-02-23T13:55:00.827Z,16.40
2018-02-23T13:57:28.462Z,17.53
2018-02-23T13:59:56.039Z,19.10
2018-02-23T14:02:24.408Z,23.83
2018-02-23T14:04:52.227Z,39.20
2018-02-23T14:07:25.528Z,17.63
2018-02-23T14:09:53.288Z,16.30
2018-02-23T14:12:20.888Z,18.37
2018-02-23T14:14:48.466Z,18.20
2018-02-23T14:17:16.811Z,29.27
2018-02-23T14:19:44.669Z,19.33
2018-02-23T14:22:12.239Z,23.20
2018-02-23T14:24:39.844Z,28.67
2018-02-23T14:27:07.436Z,19.97
2018-02-23T14:29:36.958Z,17.97
2018-02-23T14:32:04.683Z,18.33
2018-02-23T14:34:32.483Z,18.60
2018-02-23T14:37:00.079Z,27.20
2018-02-23T14:39:28.598Z,39.33
2018-02-23T14:41:56.204Z,26.60
2018-02-23T14:44:23.784Z,30.60
2018-02-23T14:46:52.151Z,20.57
2018-02-23T14:49:20.524Z,18.40
2018-02-23T14:51:48.888Z,17.70
2018-02-23T14:54:16.722Z,20.40
2018-02-23T14:56:45.095Z,18.47
2018-02-23T14:59:12.812Z,24.20
2018-02-23T15:01:41.184Z,27.07
2018-02-23T15:04:09.731Z,25.83
2018-02-23T15:06:37.340Z,22.97
2018-02-23T15:09:05.696Z,21.00
2018-02-23T15:11:33.272Z,20.87
2018-02-23T15:14:01.645Z,22.93
2018-02-23T15:16:29.983Z,31.63
2018-02-23T15:18:58.187Z,27.93
2018-02-23T15:21:26.526Z,22.37
2018-02-23T15:23:54.177Z,21.73
2018-02-23T15:26:21.764Z,20.30
2018-02-23T15:28:49.384Z,25.80
2018-02-23T15:31:29.071Z,20.90
2018-02-23T15:33:56.684Z,22.37
2018-02-23T15:36:24.314Z,20.00
2018-02-23T15:38:52.660Z,25.80
2018-02-23T15:41:21.160Z,33.13
2018-02-23T15:43:48.733Z,36.67
2018-02-23T15:46:17.274Z,22.80
2018-02-23T15:48:50.282Z,19.77
2018-02-23T15:51:21.695Z,18.20
2018-02-23T15:53:49.269Z,16.50
2018-02-23T15:56:16.890Z,17.27
2018-02-23T15:58:45.369Z,18.00
2018-02-23T16:01:13.181Z,17.33
2018-02-23T16:03:40.776Z,19.20
2018-02-23T16:06:09.295Z,17.50
2018-02-23T16:08:36.874Z,18.33
2018-02-23T16:11:04.494Z,16.80
2018-02-23T16:13:32.073Z,17.03
2018-02-23T16:15:59.671Z,17.57
2018-02-23T16:18:27.256Z,17.70
2018-02-23T16:20:55.780Z,17.27
2018-02-23T16:23:23.422Z,19.00
2018-02-23T16:25:51.001Z,18.10
2018-02-23T16:28:18.599Z,17.67
2018-02-23T16:30:46.172Z,15.37
2018-02-23T16:33:14.540Z,17.13
2018-02-23T16:35:42.362Z,15.53
2018-02-23T16:38:10.005Z,16.50
2018-02-23T16:40:38.464Z,16.77
2018-02-23T16:43:06.895Z,17.30
2018-02-23T16:45:34.652Z,15.70
2018-02-23T16:48:02.336Z,15.33
2018-02-23T16:50:30.185Z,16.33
2018-02-23T16:52:57.801Z,15.57
2018-02-23T16:55:26.309Z,17.20
2018-02-23T16:57:53.899Z,16.43
2018-02-23T17:00:21.482Z,15.17
2018-02-23T17:02:49.092Z,15.40
2018-02-23T17:05:16.708Z,16.77
2018-02-23T17:07:45.059Z,15.67
2018-02-23T17:10:14.415Z,15.83
2018-02-23T17:12:42.006Z,16.90
2018-02-23T17:15:09.635Z,18.60
2018-02-23T17:17:37.204Z,18.80
2018-02-23T17:20:05.020Z,16.20
2018-02-23T17:22:33.384Z,15.83
2018-02-23T17:25:00.990Z,16.40
2018-02-23T17:27:28.587Z,15.13
2018-02-23T17:29:56.214Z,15.87
2018-02-23T17:32:23.813Z,16.23
2018-02-23T17:34:51.455Z,15.80
2018-02-23T17:37:19.040Z,14.67
2018-02-23T17:39:46.659Z,14.27
2018-02-23T17:42:14.263Z,15.30
2018-02-23T17:44:41.860Z,16.20
2018-02-23T17:47:10.253Z,15.20
2018-02-23T17:49:38.039Z,17.03
2018-02-23T17:52:05.645Z,14.90
2018-02-23T17:54:33.216Z,17.47
2018-02-23T17:57:01.867Z,15.50
2018-02-23T17:59:29.705Z,16.53
2018-02-23T18:01:57.282Z,15.80
2018-02-23T18:04:24.935Z,21.80
2018-02-23T18:06:52.529Z,23.10
2018-02-23T18:09:20.152Z,23.93
2018-02-23T18:11:47.720Z,20.63
2018-02-23T18:14:15.349Z,20.40
2018-02-23T18:16:42.931Z,18.37
2018-02-23T18:19:10.539Z,22.67
2018-02-23T18:21:38.914Z,21.47
2018-02-23T18:24:07.334Z,16.27
2018-02-23T18:26:34.938Z,17.80
2018-02-23T18:29:02.509Z,16.70
2018-02-23T18:31:30.892Z,23.83
2018-02-23T18:33:59.294Z,20.73
2018-02-23T18:36:26.936Z,19.27
2018-02-23T18:38:55.483Z,19.73
2018-02-23T18:41:23.078Z,19.47
2018-02-23T18:43:51.581Z,19.87
2018-02-23T18:46:19.168Z,18.30
2018-02-23T18:48:46.798Z,17.90
2018-02-23T18:51:14.390Z,18.00
2018-02-23T18:53:42.023Z,19.37
2018-02-23T18:56:09.637Z,18.93
2018-02-23T18:58:37.278Z,18.37
2018-02-23T19:01:04.908Z,18.70
2018-02-23T19:03:32.541Z,21.63
2018-02-23T19:06:00.117Z,20.80
2018-02-23T19:08:27.702Z,24.87
2018-02-23T19:10:55.305Z,22.47
2018-02-23T19:13:22.889Z,21.17
2018-02-23T19:15:50.521Z,21.30
2018-02-23T19:18:18.110Z,17.63
2018-02-23T19:20:45.699Z,26.93
2018-02-23T19:23:13.338Z,23.23
2018-02-23T19:25:40.906Z,17.00
2018-02-23T19:28:08.585Z,16.27
2018-02-23T19:30:36.184Z,16.37
2018-02-23T19:33:03.809Z,18.57
2018-02-23T19:35:31.409Z,24.90
2018-02-23T19:37:59.942Z,19.93
2018-02-23T19:40:27.561Z,14.27
2018-02-23T19:42:56.092Z,14.80
2018-02-23T19:45:23.703Z,13.50
2018-02-23T19:47:52.258Z,15.10
2018-02-23T19:50:19.875Z,17.30
2018-02-23T19:52:47.452Z,17.00
2018-02-23T19:55:15.059Z,16.27
2018-02-23T19:57:43.559Z,13.77
2018-02-23T20:00:11.144Z,12.30
2018-02-23T20:02:38.789Z,14.10
2018-02-23T20:05:06.527Z,13.70
2018-02-23T20:07:34.938Z,13.90
2018-02-23T20:10:02.539Z,12.53
2018-02-23T20:12:30.152Z,13.37
2018-02-23T20:14:57.739Z,13.27
2018-02-23T20:17:25.336Z,19.20
2018-02-23T20:19:53.721Z,18.30
2018-02-23T20:22:22.097Z,13.73
2018-02-23T20:24:50.474Z,17.10
2018-02-23T20:27:18.851Z,15.30
2018-02-23T20:29:47.248Z,13.53
2018-02-23T20:32:15.042Z,17.20
2018-02-23T20:34:42.641Z,16.13
2018-02-23T20:37:10.253Z,14.73
2018-02-23T20:39:37.835Z,14.83
2018-02-23T20:42:05.471Z,11.80
2018-02-23T20:44:33.109Z,11.90
2018-02-23T20:47:00.721Z,14.80
2018-02-23T20:49:28.328Z,15.00
2018-02-23T20:51:56.928Z,12.60
2018-02-23T20:54:24.520Z,12.53
2018-02-23T20:56:53.958Z,16.23
2018-02-23T20:59:22.314Z,25.10
2018-02-23T21:01:50.084Z,33.47
2018-02-23T21:04:17.665Z,25.27
2018-02-23T21:06:46.219Z,20.17
2018-02-23T21:09:13.819Z,20.87
2018-02-23T21:11:41.440Z,24.47
2018-02-23T21:14:09.053Z,23.60
2018-02-23T21:16:36.651Z,15.80
2018-02-23T21:19:04.268Z,15.73
2018-02-23T21:21:31.843Z,13.90
2018-02-23T21:23:59.447Z,18.40
2018-02-23T21:26:27.055Z,19.30
2018-02-23T21:28:54.634Z,26.77
2018-02-23T21:31:22.279Z,21.63
2018-02-23T21:33:49.848Z,16.10
2018-02-23T21:36:17.515Z,12.83
2018-02-23T21:38:45.091Z,15.87
2018-02-23T21:41:12.707Z,17.97
2018-02-23T21:43:40.284Z,20.17
2018-02-23T21:46:07.923Z,31.80
2018-02-23T21:48:35.544Z,20.90
2018-02-23T21:51:03.127Z,22.90
2018-02-23T21:53:31.496Z,22.23
2018-02-23T21:55:59.879Z,25.03
2018-02-23T21:58:28.252Z,19.30
2018-02-23T22:00:56.657Z,18.13
2018-02-23T22:03:24.238Z,16.90
2018-02-23T22:05:51.871Z,15.47
2018-02-23T22:08:19.468Z,14.17
2018-02-23T22:10:47.125Z,16.57
2018-02-23T22:13:14.738Z,15.97
2018-02-23T22:15:43.292Z,13.07
2018-02-23T22:18:10.914Z,12.37
2018-02-23T22:20:38.499Z,13.93
2018-02-23T22:23:06.126Z,12.60
2018-02-23T22:25:33.706Z,13.20
2018-02-23T22:28:02.184Z,17.50
2018-02-23T22:30:29.804Z,13.40
2018-02-23T22:32:58.203Z,14.73
2018-02-23T22:35:26.004Z,14.90
2018-02-23T22:37:53.606Z,12.87
2018-02-23T22:40:22.175Z,13.20
2018-02-23T22:42:50.541Z,11.93
2018-02-23T22:45:18.296Z,12.23
2018-02-23T22:47:45.874Z,13.97
2018-02-23T22:50:14.445Z,12.30
2018-02-23T22:52:42.030Z,12.50
2018-02-23T22:55:10.581Z,16.53
2018-02-23T22:57:38.171Z,15.10
2018-02-23T23:00:05.808Z,13.93
2018-02-23T23:02:33.400Z,14.40
2018-02-23T23:05:01.014Z,12.77
2018-02-23T23:07:28.605Z,14.33
2018-02-23T23:09:57.155Z,13.30
2018-02-23T23:12:24.743Z,11.83
2018-02-23T23:14:53.315Z,12.27
2018-02-23T23:17:21.685Z,10.93
2018-02-23T23:19:49.441Z,14.70
2018-02-23T23:22:17.050Z,12.20
2018-02-23T23:24:44.634Z,13.30
2018-02-23T23:27:12.254Z,14.07
2018-02-23T23:29:40.739Z,14.37
2018-02-23T23:32:09.092Z,12.17
2018-02-23T23:34:36.939Z,19.10
2018-02-23T23:37:04.722Z,19.17
2018-02-23T23:39:32.463Z,27.33
2018-02-23T23:42:00.064Z,15.50
2018-02-23T23:44:27.829Z,15.20
2018-02-23T23:46:56.189Z,15.27
2018-02-23T23:49:24.699Z,15.53
2018-02-23T23:51:52.321Z,16.07
2018-02-23T23:54:19.931Z,14.63
2018-02-23T23:56:47.546Z,16.17
2018-02-23T23:59:15.143Z,14.60
